Time;durP1;ratioP1;P1;durP2;ratioP2;P2;SDS_P1;SDS_P2;PMS_P1;PMS_P2;Temp;Humidity;BMP_temperature;BMP_pressure;BME280_temperature;BME280_humidity;BME280_pressure;Samples;Min_cycle;Max_cycle;Signal;HPM_P1;HPM_P2
2021/10/05 00:01:12;;;;;;;10.40;1.63;;;;;;;;;;5019324;28;20525;-81
2021/10/05 00:03:39;;;;;;;8.67;1.47;;;;;;;;;;5033496;28;20469;-81
2021/10/05 00:06:06;;;;;;;9.00;1.93;;;;;;;;;;5027040;28;20505;-82
2021/10/05 00:08:33;;;;;;;10.17;1.77;;;;;;;;;;5031173;28;20455;-80
2021/10/05 00:11:01;;;;;;;9.63;1.47;;;;;;;;;;5035989;28;20555;-79
2021/10/05 00:13:28;;;;;;;8.37;1.50;;;;;;;;;;5016967;28;20489;-79
2021/10/05 00:15:56;;;;;;;8.33;1.37;;;;;;;;;;5036133;28;20833;-79
2021/10/05 00:18:23;;;;;;;9.50;2.33;;;;;;;;;;5036484;28;20920;-82
2021/10/05 00:20:50;;;;;;;9.00;1.80;;;;;;;;;;5035329;28;20452;-82
2021/10/05 00:23:18;;;;;;;8.73;1.60;;;;;;;;;;5027412;28;20494;-83
2021/10/05 00:25:45;;;;;;;8.60;1.70;;;;;;;;;;5016432;28;20491;-80
2021/10/05 00:28:13;;;;;;;9.30;1.53;;;;;;;;;;5024496;28;20854;-81
2021/10/05 00:30:40;;;;;;;8.33;1.63;;;;;;;;;;5022464;28;20497;-81
2021/10/05 00:33:09;;;;;;;8.63;1.70;;;;;;;;;;5056898;22;20497;-81
2021/10/05 00:35:36;;;;;;;8.60;1.80;;;;;;;;;;5062516;28;20447;-78
2021/10/05 00:38:03;;;;;;;9.37;1.47;;;;;;;;;;5059239;28;20521;-83
2021/10/05 00:40:30;;;;;;;8.87;1.53;;;;;;;;;;5052261;28;20554;-81
2021/10/05 00:42:58;;;;;;;10.27;1.60;;;;;;;;;;5036746;28;20488;-81
2021/10/05 00:45:25;;;;;;;9.13;1.70;;;;;;;;;;5044912;28;20511;-80
2021/10/05 00:47:52;;;;;;;8.20;1.50;;;;;;;;;;5053001;28;20547;-79
2021/10/05 00:50:20;;;;;;;9.33;1.97;;;;;;;;;;5055017;28;20520;-79
2021/10/05 00:52:49;;;;;;;12.33;1.70;;;;;;;;;;5041293;28;20459;-81
2021/10/05 00:55:16;;;;;;;9.60;1.70;;;;;;;;;;5043837;28;20456;-82
2021/10/05 00:57:43;;;;;;;8.67;1.67;;;;;;;;;;5052345;28;20882;-82
2021/10/05 01:00:11;;;;;;;9.13;1.60;;;;;;;;;;5054794;28;20474;-81
2021/10/05 01:02:38;;;;;;;8.53;1.47;;;;;;;;;;5048901;28;20486;-80
2021/10/05 01:05:07;;;;;;;9.37;1.50;;;;;;;;;;5050857;28;20536;-80
2021/10/05 01:07:36;;;;;;;9.43;1.97;;;;;;;;;;5056952;28;20463;-82
2021/10/05 01:10:03;;;;;;;8.77;1.67;;;;;;;;;;5063434;28;20506;-80
2021/10/05 01:12:30;;;;;;;8.60;1.57;;;;;;;;;;5068386;28;20534;-81
2021/10/05 01:14:57;;;;;;;8.37;1.40;;;;;;;;;;5070134;28;21054;-77
2021/10/05 01:17:25;;;;;;;9.63;1.60;;;;;;;;;;5061851;28;20527;-81
2021/10/05 01:19:52;;;;;;;8.60;1.57;;;;;;;;;;5055934;28;21009;-81
2021/10/05 01:22:20;;;;;;;9.00;1.40;;;;;;;;;;5055570;28;20451;-77
2021/10/05 01:24:49;;;;;;;8.50;1.60;;;;;;;;;;5052015;28;20498;-80
2021/10/05 01:27:17;;;;;;;8.43;1.40;;;;;;;;;;5058849;28;20507;-83
2021/10/05 01:29:44;;;;;;;11.50;1.83;;;;;;;;;;5060737;28;20451;-81
2021/10/05 01:32:11;;;;;;;8.20;1.40;;;;;;;;;;5043915;28;20471;-81
2021/10/05 01:34:38;;;;;;;9.07;1.63;;;;;;;;;;5041427;28;20488;-81
2021/10/05 01:37:05;;;;;;;8.37;1.60;;;;;;;;;;5041024;28;20452;-82
2021/10/05 01:39:35;;;;;;;9.67;1.33;;;;;;;;;;5057117;28;20534;-80
2021/10/05 01:42:03;;;;;;;8.70;1.70;;;;;;;;;;5041425;28;20488;-79
2021/10/05 01:44:31;;;;;;;9.87;1.77;;;;;;;;;;5058345;28;20547;-78
2021/10/05 01:47:05;;;;;;;8.27;1.50;;;;;;;;;;5057974;28;20511;-77
2021/10/05 01:49:32;;;;;;;9.20;1.50;;;;;;;;;;5059033;28;20461;-82
2021/10/05 01:51:59;;;;;;;10.67;1.70;;;;;;;;;;5042609;28;20457;-79
2021/10/05 01:54:27;;;;;;;8.20;1.40;;;;;;;;;;5049692;28;20483;-79
2021/10/05 01:56:56;;;;;;;9.40;1.37;;;;;;;;;;5041977;28;20448;-79
2021/10/05 01:59:24;;;;;;;8.30;1.30;;;;;;;;;;5054290;28;20451;-82
2021/10/05 02:01:51;;;;;;;8.10;1.10;;;;;;;;;;5048427;28;20462;-79
2021/10/05 02:04:18;;;;;;;8.07;1.33;;;;;;;;;;5046764;28;20514;-77
2021/10/05 02:06:46;;;;;;;8.50;1.40;;;;;;;;;;5036774;28;20487;-77
2021/10/05 02:09:13;;;;;;;10.33;1.80;;;;;;;;;;5054860;28;20455;-81
2021/10/05 02:11:41;;;;;;;7.90;1.13;;;;;;;;;;5046381;28;20459;-81
2021/10/05 02:14:09;;;;;;;8.80;1.57;;;;;;;;;;5054080;28;20472;-80
2021/10/05 02:16:37;;;;;;;8.73;1.90;;;;;;;;;;5055764;28;20822;-81
2021/10/05 02:19:05;;;;;;;8.70;1.60;;;;;;;;;;5054992;28;20831;-82
2021/10/05 02:21:32;;;;;;;8.20;1.50;;;;;;;;;;5054617;28;20448;-80
2021/10/05 02:26:53;;;;;;;8.80;1.57;;;;;;;;;;5035547;28;20499;-77
2021/10/05 02:29:24;;;;;;;8.37;1.53;;;;;;;;;;5055666;28;20542;-79
2021/10/05 02:31:51;;;;;;;8.87;1.70;;;;;;;;;;5049565;28;20452;-77
2021/10/05 02:34:18;;;;;;;10.10;1.70;;;;;;;;;;5051006;28;20483;-77
2021/10/05 02:36:47;;;;;;;8.80;1.50;;;;;;;;;;5043766;28;20455;-76
2021/10/05 02:39:15;;;;;;;8.17;1.30;;;;;;;;;;5055953;28;20462;-80
2021/10/05 02:41:42;;;;;;;9.60;1.70;;;;;;;;;;5049901;28;20454;-79
2021/10/05 02:44:10;;;;;;;8.50;1.33;;;;;;;;;;5053781;28;20823;-77
2021/10/05 02:46:39;;;;;;;9.17;1.77;;;;;;;;;;5043894;28;21008;-77
2021/10/05 02:49:06;;;;;;;10.87;1.80;;;;;;;;;;5055607;28;20504;-80
2021/10/05 02:51:34;;;;;;;8.40;1.60;;;;;;;;;;5047667;28;20451;-82
2021/10/05 02:54:01;;;;;;;8.03;1.30;;;;;;;;;;5050640;28;20556;-82
2021/10/05 02:56:28;;;;;;;8.47;1.57;;;;;;;;;;5041642;28;20453;-81
2021/10/05 02:58:55;;;;;;;8.27;1.40;;;;;;;;;;5055751;28;20455;-82
2021/10/05 03:01:23;;;;;;;8.30;1.60;;;;;;;;;;5056744;28;21085;-82
2021/10/05 03:03:52;;;;;;;11.10;2.23;;;;;;;;;;5049768;28;20477;-82
2021/10/05 03:06:19;;;;;;;8.20;1.53;;;;;;;;;;5059922;28;21006;-81
2021/10/05 03:08:46;;;;;;;9.67;2.60;;;;;;;;;;5056950;28;20452;-81
2021/10/05 03:11:13;;;;;;;9.13;2.00;;;;;;;;;;5054912;28;20554;-78
2021/10/05 03:13:40;;;;;;;8.73;1.47;;;;;;;;;;5061279;28;20473;-78
2021/10/05 03:16:08;;;;;;;9.37;1.40;;;;;;;;;;5044898;28;20536;-77
2021/10/05 03:18:36;;;;;;;9.40;1.90;;;;;;;;;;5052781;28;20452;-79
2021/10/05 03:21:04;;;;;;;8.93;1.60;;;;;;;;;;5045425;28;20478;-79
2021/10/05 03:23:33;;;;;;;9.17;1.73;;;;;;;;;;5047560;28;20497;-79
2021/10/05 03:26:00;;;;;;;9.07;1.70;;;;;;;;;;5041687;28;20463;-77
2021/10/05 03:28:27;;;;;;;8.40;1.33;;;;;;;;;;5055170;28;20459;-82
2021/10/05 03:30:54;;;;;;;8.57;1.40;;;;;;;;;;5056009;28;20964;-80
2021/10/05 03:33:21;;;;;;;8.83;1.53;;;;;;;;;;5048852;28;20483;-77
2021/10/05 03:35:54;;;;;;;9.10;1.90;;;;;;;;;;5036741;28;20815;-77
2021/10/05 03:38:24;;;;;;;8.20;1.30;;;;;;;;;;5050260;28;20518;-80
2021/10/05 03:40:53;;;;;;;8.90;1.33;;;;;;;;;;5049117;28;20845;-80
2021/10/05 03:43:21;;;;;;;9.60;1.53;;;;;;;;;;5055986;28;21194;-79
2021/10/05 03:45:49;;;;;;;8.57;1.70;;;;;;;;;;5056148;28;20447;-79
2021/10/05 03:48:18;;;;;;;8.37;1.27;;;;;;;;;;5051967;28;20477;-79
2021/10/05 03:50:45;;;;;;;8.87;1.40;;;;;;;;;;5034994;28;20446;-80
2021/10/05 03:53:16;;;;;;;8.30;1.37;;;;;;;;;;5041876;28;20902;-79
2021/10/05 03:55:45;;;;;;;8.40;1.70;;;;;;;;;;5035835;28;20459;-79
2021/10/05 03:58:12;;;;;;;8.23;1.40;;;;;;;;;;5052480;28;20485;-81
2021/10/05 04:00:39;;;;;;;7.93;1.40;;;;;;;;;;5035439;28;20458;-79
2021/10/05 04:03:06;;;;;;;10.43;1.93;;;;;;;;;;5040034;28;20478;-78
2021/10/05 04:05:33;;;;;;;8.87;1.77;;;;;;;;;;5044759;28;20988;-80
2021/10/05 04:08:02;;;;;;;8.00;1.43;;;;;;;;;;5042040;28;21071;-78
2021/10/05 04:10:29;;;;;;;8.37;1.50;;;;;;;;;;5032561;28;20952;-79
2021/10/05 04:12:58;;;;;;;8.43;1.40;;;;;;;;;;5048230;28;20539;-79
2021/10/05 04:15:25;;;;;;;8.27;1.60;;;;;;;;;;5051705;28;20459;-79
2021/10/05 04:17:52;;;;;;;10.13;2.87;;;;;;;;;;5051984;28;20494;-81
2021/10/05 04:20:19;;;;;;;8.50;1.80;;;;;;;;;;5052354;28;20450;-79
2021/10/05 04:25:32;;;;;;;8.00;1.40;;;;;;;;;;5063548;28;20935;-85
2021/10/05 04:28:01;;;;;;;9.27;2.00;;;;;;;;;;5069621;28;20505;-83
2021/10/05 04:30:28;;;;;;;21.17;5.80;;;;;;;;;;5045800;28;20460;-82
2021/10/05 04:32:55;;;;;;;60.47;22.80;;;;;;;;;;5049105;28;20996;-82
2021/10/05 04:35:22;;;;;;;52.73;19.30;;;;;;;;;;5036871;28;20453;-82
2021/10/05 04:37:49;;;;;;;55.70;17.87;;;;;;;;;;5043815;28;20449;-83
2021/10/05 04:40:16;;;;;;;36.63;12.70;;;;;;;;;;5039533;28;20464;-82
2021/10/05 04:42:44;;;;;;;29.00;9.90;;;;;;;;;;5037483;28;20456;-82
2021/10/05 04:45:12;;;;;;;23.53;7.50;;;;;;;;;;5042312;28;20478;-82
2021/10/05 04:47:39;;;;;;;19.37;5.17;;;;;;;;;;5046909;28;20486;-82
2021/10/05 04:50:08;;;;;;;13.27;3.80;;;;;;;;;;5053593;28;20953;-83
2021/10/05 04:52:35;;;;;;;10.90;3.00;;;;;;;;;;5035969;28;20981;-83
2021/10/05 04:55:02;;;;;;;20.07;3.17;;;;;;;;;;5023794;28;20483;-85
2021/10/05 04:57:30;;;;;;;10.80;2.63;;;;;;;;;;5030907;28;20453;-83
2021/10/05 04:59:57;;;;;;;10.17;3.00;;;;;;;;;;5034574;28;20453;-83
2021/10/05 05:02:25;;;;;;;9.47;2.40;;;;;;;;;;5032423;28;20461;-82
2021/10/05 05:04:52;;;;;;;10.10;2.43;;;;;;;;;;5029045;28;20489;-83
2021/10/05 05:07:19;;;;;;;11.93;2.17;;;;;;;;;;5032670;28;20574;-83
2021/10/05 05:09:47;;;;;;;9.67;2.60;;;;;;;;;;5029997;28;20859;-84
2021/10/05 05:12:14;;;;;;;9.80;2.30;;;;;;;;;;5035724;28;20456;-83
2021/10/05 05:14:41;;;;;;;12.93;2.77;;;;;;;;;;5031202;28;20476;-82
2021/10/05 05:17:08;;;;;;;10.80;2.50;;;;;;;;;;5043941;28;20458;-83
2021/10/05 05:19:37;;;;;;;8.67;2.10;;;;;;;;;;5032905;28;20445;-83
2021/10/05 05:22:04;;;;;;;8.80;2.13;;;;;;;;;;5028449;28;20446;-83
2021/10/05 05:24:31;;;;;;;9.60;2.40;;;;;;;;;;5023755;28;20484;-83
2021/10/05 05:26:58;;;;;;;8.03;1.00;;;;;;;;;;5025735;28;21522;-82
2021/10/05 05:29:26;;;;;;;9.03;2.27;;;;;;;;;;5029978;28;20461;-82
2021/10/05 05:31:57;;;;;;;9.53;2.07;;;;;;;;;;5027695;28;20455;-82
2021/10/05 05:34:24;;;;;;;9.50;1.70;;;;;;;;;;5024996;28;20469;-81
2021/10/05 05:36:53;;;;;;;9.27;2.10;;;;;;;;;;5027092;28;20442;-81
2021/10/05 05:39:20;;;;;;;10.60;2.03;;;;;;;;;;5021608;28;20452;-81
2021/10/05 05:41:47;;;;;;;9.40;2.27;;;;;;;;;;5026416;28;20482;-84
2021/10/05 05:44:15;;;;;;;12.00;2.73;;;;;;;;;;5032756;28;20482;-83
2021/10/05 05:46:42;;;;;;;15.83;3.53;;;;;;;;;;5017332;28;20866;-84
2021/10/05 05:49:09;;;;;;;10.30;2.57;;;;;;;;;;5031526;28;20464;-86
2021/10/05 05:51:36;;;;;;;9.50;2.50;;;;;;;;;;5029525;28;20829;-87
2021/10/05 05:54:05;;;;;;;9.33;2.43;;;;;;;;;;5020058;28;20487;-84
2021/10/05 05:56:32;;;;;;;10.17;2.33;;;;;;;;;;5029507;28;20631;-86
2021/10/05 05:59:00;;;;;;;9.87;2.60;;;;;;;;;;5011743;28;20842;-87
2021/10/05 06:01:27;;;;;;;10.60;2.57;;;;;;;;;;5026335;28;20593;-86
2021/10/05 06:03:54;;;;;;;10.50;3.20;;;;;;;;;;5021800;28;20543;-85
2021/10/05 06:06:21;;;;;;;10.43;2.80;;;;;;;;;;5028593;28;20453;-86
2021/10/05 06:08:50;;;;;;;11.20;2.77;;;;;;;;;;5025006;28;20485;-86
2021/10/05 06:11:19;;;;;;;9.43;2.83;;;;;;;;;;5020782;28;20970;-86
2021/10/05 06:13:47;;;;;;;10.27;2.70;;;;;;;;;;5022857;28;20556;-85
2021/10/05 06:16:14;;;;;;;8.70;2.20;;;;;;;;;;5015690;28;20458;-85
2021/10/05 06:18:42;;;;;;;9.53;3.00;;;;;;;;;;5032345;28;20449;-85
2021/10/05 06:21:09;;;;;;;10.03;2.70;;;;;;;;;;5022484;28;20543;-85
2021/10/05 06:23:36;;;;;;;9.30;2.40;;;;;;;;;;5034315;28;20480;-86
2021/10/05 06:26:03;;;;;;;9.73;2.70;;;;;;;;;;5039441;28;20507;-87
2021/10/05 06:28:32;;;;;;;9.37;2.60;;;;;;;;;;5027760;28;20484;-87
2021/10/05 06:31:00;;;;;;;9.83;2.53;;;;;;;;;;5039809;28;20450;-86
2021/10/05 06:33:28;;;;;;;11.87;2.97;;;;;;;;;;5041790;28;20499;-85
2021/10/05 06:35:56;;;;;;;8.90;2.40;;;;;;;;;;5022504;28;20468;-87
2021/10/05 06:38:23;;;;;;;8.93;2.53;;;;;;;;;;5022729;28;20540;-86
2021/10/05 06:40:50;;;;;;;10.43;2.63;;;;;;;;;;5022094;28;20448;-86
2021/10/05 06:43:19;;;;;;;8.93;2.40;;;;;;;;;;5023605;28;20470;-86
2021/10/05 06:45:48;;;;;;;9.60;2.30;;;;;;;;;;5031191;28;20455;-87
2021/10/05 06:48:15;;;;;;;9.63;2.50;;;;;;;;;;5032913;28;20488;-86
2021/10/05 06:50:42;;;;;;;9.60;2.63;;;;;;;;;;5035419;28;20463;-87
2021/10/05 06:53:15;;;;;;;9.70;2.80;;;;;;;;;;5032584;28;20464;-86
2021/10/05 06:55:43;;;;;;;11.73;2.23;;;;;;;;;;5032065;28;20538;-86
2021/10/05 06:58:10;;;;;;;9.20;2.80;;;;;;;;;;5032323;28;20840;-86
2021/10/05 07:00:38;;;;;;;10.53;2.60;;;;;;;;;;5032649;28;20459;-85
2021/10/05 07:03:06;;;;;;;8.53;2.13;;;;;;;;;;5029073;28;20839;-85
2021/10/05 07:05:33;;;;;;;10.23;2.50;;;;;;;;;;5029107;28;20494;-87
2021/10/05 07:08:00;;;;;;;8.93;2.60;;;;;;;;;;5031490;28;20487;-86
2021/10/05 07:10:29;;;;;;;10.90;3.37;;;;;;;;;;5031974;28;20464;-86
2021/10/05 07:12:56;;;;;;;10.50;2.30;;;;;;;;;;5030980;28;20457;-86
2021/10/05 07:15:24;;;;;;;9.40;2.60;;;;;;;;;;5028852;28;20469;-86
2021/10/05 07:17:55;;;;;;;10.20;3.30;;;;;;;;;;5018418;28;20441;-86
2021/10/05 07:20:23;;;;;;;10.43;2.40;;;;;;;;;;5031815;28;20457;-87
2021/10/05 07:22:51;;;;;;;10.60;2.50;;;;;;;;;;5031466;28;20839;-85
2021/10/05 07:25:18;;;;;;;10.10;2.90;;;;;;;;;;5031453;28;20926;-86
2021/10/05 07:27:50;;;;;;;9.23;1.90;;;;;;;;;;5031572;28;20871;-85
2021/10/05 07:30:22;;;;;;;9.77;2.37;;;;;;;;;;5032626;28;20491;-86
2021/10/05 07:32:50;;;;;;;10.13;1.90;;;;;;;;;;5014314;28;20832;-87
2021/10/05 07:35:17;;;;;;;9.90;1.97;;;;;;;;;;5020277;28;20480;-85
2021/10/05 07:37:46;;;;;;;12.00;2.00;;;;;;;;;;5029644;28;20467;-85
2021/10/05 07:40:15;;;;;;;9.73;1.57;;;;;;;;;;5030847;28;20844;-85
2021/10/05 07:42:42;;;;;;;8.30;1.70;;;;;;;;;;5032242;28;20558;-84
2021/10/05 07:45:10;;;;;;;9.13;2.10;;;;;;;;;;5031708;28;20586;-85
2021/10/05 07:47:37;;;;;;;9.03;1.77;;;;;;;;;;5032190;28;20496;-86
2021/10/05 07:50:05;;;;;;;9.60;1.80;;;;;;;;;;5028400;28;21027;-85
2021/10/05 07:52:32;;;;;;;8.60;1.80;;;;;;;;;;5017931;28;20450;-85
2021/10/05 07:55:01;;;;;;;10.33;1.83;;;;;;;;;;5023974;28;20489;-86
2021/10/05 07:57:28;;;;;;;8.73;1.50;;;;;;;;;;5027491;28;20444;-85
2021/10/05 07:59:55;;;;;;;8.33;1.60;;;;;;;;;;5020735;28;20442;-84
2021/10/05 08:02:22;;;;;;;8.50;1.53;;;;;;;;;;5023550;28;20469;-86
2021/10/05 08:04:49;;;;;;;8.67;1.60;;;;;;;;;;5028626;28;20847;-86
2021/10/05 08:07:16;;;;;;;8.47;1.40;;;;;;;;;;5031249;28;20450;-85
2021/10/05 08:09:43;;;;;;;8.97;1.60;;;;;;;;;;5028175;28;20468;-85
2021/10/05 08:12:12;;;;;;;10.40;1.40;;;;;;;;;;5012591;28;20859;-85
2021/10/05 08:14:39;;;;;;;8.97;1.50;;;;;;;;;;5022416;28;20493;-85
2021/10/05 08:17:07;;;;;;;8.43;1.47;;;;;;;;;;5031220;28;20948;-86
2021/10/05 08:19:34;;;;;;;7.97;1.33;;;;;;;;;;5031537;28;20452;-84
2021/10/05 08:22:01;;;;;;;8.83;1.57;;;;;;;;;;5036830;28;20471;-84
2021/10/05 08:24:28;;;;;;;8.97;1.50;;;;;;;;;;5035856;28;20474;-85
2021/10/05 08:26:55;;;;;;;8.87;1.47;;;;;;;;;;5033945;28;20923;-85
2021/10/05 08:29:24;;;;;;;7.90;1.23;;;;;;;;;;5036270;28;20504;-85
2021/10/05 08:31:52;;;;;;;9.43;1.67;;;;;;;;;;5041464;28;20462;-85
2021/10/05 08:34:20;;;;;;;12.27;1.70;;;;;;;;;;5055895;28;20566;-84
2021/10/05 08:36:47;;;;;;;8.80;1.67;;;;;;;;;;5041395;28;20451;-85
2021/10/05 08:39:16;;;;;;;10.40;2.00;;;;;;;;;;5026245;28;20909;-85
2021/10/05 08:41:45;;;;;;;8.63;1.73;;;;;;;;;;5015612;28;20466;-84
2021/10/05 08:44:12;;;;;;;8.80;1.33;;;;;;;;;;5021199;28;20488;-84
2021/10/05 08:46:41;;;;;;;12.23;1.77;;;;;;;;;;5028341;28;20458;-84
2021/10/05 08:49:10;;;;;;;9.33;1.87;;;;;;;;;;5018298;28;20838;-84
2021/10/05 08:51:38;;;;;;;9.23;1.43;;;;;;;;;;5027461;28;20959;-84
2021/10/05 08:54:05;;;;;;;10.43;1.50;;;;;;;;;;5038688;28;20474;-84
2021/10/05 08:56:32;;;;;;;8.93;1.60;;;;;;;;;;5034443;28;20898;-84
2021/10/05 08:58:59;;;;;;;8.40;1.20;;;;;;;;;;5033804;28;20452;-84
2021/10/05 09:01:32;;;;;;;9.20;1.70;;;;;;;;;;5031635;28;21004;-85
2021/10/05 09:04:01;;;;;;;10.17;1.63;;;;;;;;;;5030139;28;20549;-85
2021/10/05 09:06:28;;;;;;;10.17;1.50;;;;;;;;;;5038793;28;21086;-85
2021/10/05 09:08:56;;;;;;;10.30;1.57;;;;;;;;;;5030743;28;20599;-84
2021/10/05 09:11:24;;;;;;;11.20;1.50;;;;;;;;;;5042234;28;20456;-81
2021/10/05 09:13:52;;;;;;;9.13;1.33;;;;;;;;;;5023199;28;20480;-83
2021/10/05 09:16:21;;;;;;;9.30;1.40;;;;;;;;;;5030351;28;20533;-83
2021/10/05 09:18:52;;;;;;;10.50;1.20;;;;;;;;;;5023591;28;20462;-84
2021/10/05 09:21:21;;;;;;;10.97;1.50;;;;;;;;;;5028222;28;20541;-85
2021/10/05 09:23:55;;;;;;;9.43;1.63;;;;;;;;;;5023117;28;20484;-84
2021/10/05 09:26:32;;;;;;;9.63;1.30;;;;;;;;;;5033997;28;20462;-83
2021/10/05 09:29:08;;;;;;;10.60;1.50;;;;;;;;;;5035650;28;21026;-83
2021/10/05 09:31:46;;;;;;;9.00;1.17;;;;;;;;;;5038554;28;20483;-82
2021/10/05 09:34:13;;;;;;;9.90;1.40;;;;;;;;;;5041504;28;20995;-84
2021/10/05 09:36:41;;;;;;;9.20;1.10;;;;;;;;;;5039452;28;20458;-83
2021/10/05 09:39:08;;;;;;;9.30;0.90;;;;;;;;;;5027620;28;20454;-83
2021/10/05 09:41:36;;;;;;;9.60;1.20;;;;;;;;;;5033676;28;20453;-84
2021/10/05 09:44:07;;;;;;;8.70;1.20;;;;;;;;;;5032548;28;20483;-86
2021/10/05 09:46:34;;;;;;;8.27;1.00;;;;;;;;;;5033693;28;20461;-84
2021/10/05 09:49:02;;;;;;;8.17;1.20;;;;;;;;;;5033251;28;20484;-85
2021/10/05 09:51:29;;;;;;;8.10;1.10;;;;;;;;;;5031957;28;20453;-84
2021/10/05 09:53:59;;;;;;;9.10;1.27;;;;;;;;;;5025090;28;20476;-85
2021/10/05 09:56:27;;;;;;;8.10;1.20;;;;;;;;;;5033431;28;20511;-85
2021/10/05 09:58:55;;;;;;;9.40;1.73;;;;;;;;;;5033516;28;20445;-87
2021/10/05 10:01:22;;;;;;;8.63;1.20;;;;;;;;;;5031254;28;20818;-84
2021/10/05 10:03:50;;;;;;;8.60;1.10;;;;;;;;;;5028984;28;20473;-84
2021/10/05 10:06:18;;;;;;;9.83;1.27;;;;;;;;;;5035765;28;20459;-85
2021/10/05 10:08:47;;;;;;;8.63;1.20;;;;;;;;;;5037152;28;20484;-84
2021/10/05 10:11:16;;;;;;;8.50;1.03;;;;;;;;;;5035547;28;20449;-83
2021/10/05 10:13:44;;;;;;;9.53;1.20;;;;;;;;;;5033044;28;20469;-86
2021/10/05 10:16:11;;;;;;;8.50;1.00;;;;;;;;;;5033480;28;20453;-86
2021/10/05 10:18:38;;;;;;;9.93;1.00;;;;;;;;;;5039201;28;20516;-84
2021/10/05 10:21:06;;;;;;;8.70;1.00;;;;;;;;;;5039401;28;20453;-84
2021/10/05 10:23:36;;;;;;;11.10;1.10;;;;;;;;;;5036617;28;20485;-86
2021/10/05 10:26:05;;;;;;;13.43;1.13;;;;;;;;;;5038171;28;20496;-84
2021/10/05 10:28:35;;;;;;;9.63;1.30;;;;;;;;;;5039828;28;20503;-85
2021/10/05 10:31:04;;;;;;;9.33;1.27;;;;;;;;;;5039142;28;20872;-85
2021/10/05 10:33:43;;;;;;;10.20;1.63;;;;;;;;;;5011654;28;20485;-85
2021/10/05 10:36:10;;;;;;;11.07;2.90;;;;;;;;;;5039592;28;20450;-84
2021/10/05 10:38:42;;;;;;;9.63;1.70;;;;;;;;;;5037805;28;20456;-83
2021/10/05 10:41:14;;;;;;;10.40;1.60;;;;;;;;;;5031227;28;20515;-82
2021/10/05 10:43:51;;;;;;;8.57;1.03;;;;;;;;;;5034637;28;20469;-83
2021/10/05 10:46:23;;;;;;;15.57;1.67;;;;;;;;;;5032052;28;20474;-83
2021/10/05 10:48:54;;;;;;;10.10;1.00;;;;;;;;;;5033813;28;20546;-83
2021/10/05 10:51:21;;;;;;;8.80;1.07;;;;;;;;;;5032888;28;20449;-85
2021/10/05 10:53:49;;;;;;;9.00;1.07;;;;;;;;;;5032375;28;21004;-84
2021/10/05 10:56:16;;;;;;;9.00;1.20;;;;;;;;;;5033281;28;21253;-83
2021/10/05 10:58:49;;;;;;;9.40;1.07;;;;;;;;;;5032037;28;20460;-84
2021/10/05 11:01:17;;;;;;;10.50;1.10;;;26.70;99.90;;;;;;5033539;28;20807;-84
2021/10/05 11:03:44;;;;;;;10.03;1.10;;;27.00;99.90;;;;;;5028719;28;20564;-84
2021/10/05 11:06:15;;;;;;;8.67;1.10;;;26.90;99.90;;;;;;5034788;28;20449;-86
2021/10/05 11:08:53;;;;;;;9.20;0.90;;;27.50;98.10;;;;;;5047271;28;21042;-85
2021/10/05 11:11:30;;;;;;;9.73;1.10;;;27.10;96.00;;;;;;5033846;28;20551;-84
2021/10/05 11:14:01;;;;;;;9.60;1.30;;;27.80;95.00;;;;;;5025149;28;20472;-85
2021/10/05 11:16:28;;;;;;;11.40;1.30;;;28.20;94.40;;;;;;5031239;28;20830;-86
2021/10/05 11:19:07;;;;;;;8.83;1.10;;;28.20;93.80;;;;;;5025893;28;20974;-85
2021/10/05 11:21:36;;;;;;;12.73;1.20;;;27.70;93.40;;;;;;5011684;28;20463;-86
2021/10/05 11:24:03;;;;;;;9.53;1.13;;;27.70;92.90;;;;;;5020174;28;20568;-85
2021/10/05 11:26:36;;;;;;;9.30;1.27;;;28.10;93.60;;;;;;5022076;28;20454;-85
2021/10/05 11:29:04;;;;;;;10.10;1.10;;;28.60;92.40;;;;;;5027372;28;20991;-86
2021/10/05 11:31:42;;;;;;;10.13;1.50;;;28.30;90.60;;;;;;5032345;28;20455;-86
2021/10/05 11:34:09;;;;;;;9.90;1.00;;;28.80;89.50;;;;;;5030347;28;20469;-86
2021/10/05 11:36:36;;;;;;;10.53;1.30;;;29.60;88.60;;;;;;5031853;28;20453;-86
2021/10/05 11:39:05;;;;;;;10.50;1.23;;;29.70;86.40;;;;;;5031753;28;20987;-85
2021/10/05 11:41:38;;;;;;;9.47;1.33;;;30.10;83.50;;;;;;5032196;28;20464;-85
2021/10/05 11:44:15;;;;;;;9.20;1.03;;;31.00;78.20;;;;;;5029515;28;20476;-85
2021/10/05 11:46:53;;;;;;;11.90;1.50;;;31.60;73.70;;;;;;5032198;28;20454;-86
2021/10/05 11:49:21;;;;;;;9.83;1.50;;;30.80;77.80;;;;;;5031849;28;20535;-86
2021/10/05 11:51:48;;;;;;;10.00;1.20;;;30.60;78.60;;;;;;5032070;28;20448;-86
2021/10/05 11:54:19;;;;;;;9.17;1.20;;;31.00;73.10;;;;;;5019185;28;20532;-85
2021/10/05 11:56:46;;;;;;;9.73;0.90;;;31.10;72.50;;;;;;5029981;28;20449;-87
2021/10/05 11:59:24;;;;;;;9.77;1.20;;;32.00;71.60;;;;;;5031056;28;20453;-85
2021/10/05 12:01:56;;;;;;;9.40;1.10;;;31.70;75.00;;;;;;5032315;28;20459;-86
2021/10/05 12:04:24;;;;;;;9.10;1.20;;;31.20;71.00;;;;;;5018837;28;20494;-85
2021/10/05 12:06:53;;;;;;;8.60;1.00;;;31.10;75.80;;;;;;5025863;28;20511;-85
2021/10/05 12:09:25;;;;;;;8.97;0.97;;;31.20;74.40;;;;;;5014170;28;20492;-86
2021/10/05 12:11:55;;;;;;;9.63;1.20;;;30.40;68.40;;;;;;5020540;28;20463;-86
2021/10/05 12:14:27;;;;;;;10.37;0.83;;;30.40;70.70;;;;;;5019307;28;20501;-86
2021/10/05 12:16:56;;;;;;;11.93;1.60;;;30.00;71.90;;;;;;5025277;28;20449;-86
2021/10/05 12:19:25;;;;;;;9.30;0.87;;;29.60;71.00;;;;;;5027149;28;20472;-84
2021/10/05 12:21:52;;;;;;;9.30;1.20;;;28.80;75.00;;;;;;5026108;28;20532;-86
2021/10/05 12:24:19;;;;;;;8.80;0.90;;;28.60;74.90;;;;;;5030436;28;20477;-86
2021/10/05 12:26:50;;;;;;;9.20;1.13;;;28.60;76.70;;;;;;5034842;28;20834;-86
2021/10/05 12:29:18;;;;;;;10.40;1.10;;;28.60;72.90;;;;;;5034065;28;20481;-86
2021/10/05 12:31:55;;;;;;;9.20;0.80;;;27.80;75.40;;;;;;5019927;28;21324;-85
2021/10/05 12:34:33;;;;;;;9.30;1.00;;;27.00;77.00;;;;;;5033531;28;20836;-87
2021/10/05 12:37:00;;;;;;;10.63;1.10;;;26.20;78.50;;;;;;5054678;28;20535;-87
2021/10/05 12:39:27;;;;;;;10.67;1.50;;;25.20;82.60;;;;;;5045344;28;20528;-87
2021/10/05 12:41:58;;;;;;;9.97;1.13;;;24.60;85.60;;;;;;5034586;28;20987;-87
2021/10/05 12:44:25;;;;;;;9.07;1.20;;;23.90;83.60;;;;;;5033032;28;20486;-87
2021/10/05 12:46:54;;;;;;;11.77;1.30;;;23.70;90.60;;;;;;5044495;28;20487;-87
2021/10/05 12:49:21;;;;;;;9.87;1.07;;;23.10;90.30;;;;;;5029613;28;21068;-87
2021/10/05 12:51:49;;;;;;;9.30;1.00;;;22.30;92.40;;;;;;5028022;28;20467;-89
2021/10/05 12:54:17;;;;;;;9.83;0.90;;;22.40;92.50;;;;;;5025109;28;20487;-87
2021/10/05 12:56:45;;;;;;;9.90;1.90;;;22.40;95.80;;;;;;5033691;28;20840;-86
2021/10/05 12:59:12;;;;;;;10.80;1.37;;;22.90;95.30;;;;;;5032618;28;20445;-88
2021/10/05 13:01:39;;;;;;;10.67;1.43;;;23.50;99.90;;;;;;5028128;28;20449;-87
2021/10/05 13:04:10;;;;;;;9.60;1.30;;;23.50;96.30;;;;;;5029064;28;20568;-87
2021/10/05 13:06:37;;;;;;;10.20;1.03;;;24.20;93.30;;;;;;5045542;28;20441;-85
2021/10/05 13:09:06;;;;;;;11.10;1.20;;;24.70;93.70;;;;;;5042384;28;20489;-86
2021/10/05 13:11:34;;;;;;;9.43;1.00;;;24.60;93.40;;;;;;5033482;28;20453;-87
2021/10/05 13:14:01;;;;;;;9.93;1.17;;;24.20;96.00;;;;;;5034154;28;20848;-86
2021/10/05 13:16:28;;;;;;;9.93;1.00;;;23.20;92.80;;;;;;5034242;28;20452;-87
2021/10/05 13:18:55;;;;;;;9.90;1.30;;;22.80;94.10;;;;;;5034349;28;20457;-86
2021/10/05 13:21:23;;;;;;;10.70;1.30;;;22.30;95.70;;;;;;5035419;28;20919;-87
2021/10/05 13:23:50;;;;;;;10.90;1.47;;;22.20;99.90;;;;;;5054022;28;20486;-87
2021/10/05 13:26:17;;;;;;;10.20;1.23;;;22.70;99.80;;;;;;5054109;28;20444;-87
2021/10/05 13:28:44;;;;;;;13.23;1.40;;;23.10;97.40;;;;;;5047009;28;20445;-88
2021/10/05 13:31:11;;;;;;;13.10;1.47;;;23.10;99.90;;;;;;5033062;28;20471;-87
2021/10/05 13:33:38;;;;;;;15.53;1.50;;;23.00;99.60;;;;;;5033729;28;20469;-88
2021/10/05 13:36:05;;;;;;;10.50;1.40;;;23.20;99.90;;;;;;5024515;28;20518;-88
2021/10/05 13:38:34;;;;;;;10.70;1.30;;;23.80;99.90;;;;;;5023317;28;20457;-88
2021/10/05 13:41:00;;;;;;;11.33;1.00;;;24.70;99.60;;;;;;5021755;28;20456;-90
2021/10/05 13:43:27;;;;;;;9.47;1.10;;;24.60;97.10;;;;;;5022425;28;20472;-87
2021/10/05 13:45:54;;;;;;;10.37;1.30;;;24.00;97.20;;;;;;5032710;28;20982;-90
2021/10/05 13:48:21;;;;;;;10.60;1.30;;;23.50;97.50;;;;;;5030250;28;20488;-88
2021/10/05 13:50:49;;;;;;;11.87;1.73;;;23.10;99.90;;;;;;5023570;28;20481;-88
2021/10/05 13:53:16;;;;;;;11.67;1.27;;;23.70;99.90;;;;;;5024548;28;20456;-89
2021/10/05 13:55:44;;;;;;;11.23;1.53;;;25.40;99.00;;;;;;5024051;28;20453;-87
2021/10/05 13:58:13;;;;;;;10.30;1.27;;;26.40;97.00;;;;;;5026775;28;20447;-87
2021/10/05 14:00:40;;;;;;;9.50;1.23;;;27.40;95.60;;;;;;5022954;28;20446;-87
2021/10/05 14:03:07;;;;;;;9.87;1.33;;;28.30;92.90;;;;;;5022842;28;20451;-87
2021/10/05 14:05:34;;;;;;;8.77;1.20;;;28.20;91.30;;;;;;5025736;28;20453;-86
2021/10/05 14:08:00;;;;;;;10.90;1.47;;;27.20;90.10;;;;;;5023099;28;20450;-88
2021/10/05 14:10:28;;;;;;;9.40;1.20;;;26.00;92.20;;;;;;5024302;28;20479;-87
2021/10/05 14:12:56;;;;;;;9.37;1.10;;;25.10;94.90;;;;;;5024222;28;20449;-87
2021/10/05 14:15:23;;;;;;;10.03;1.30;;;24.40;98.40;;;;;;5023285;28;20465;-86
2021/10/05 14:17:50;;;;;;;10.67;1.30;;;23.60;99.90;;;;;;5028357;28;20460;-87
2021/10/05 14:20:17;;;;;;;10.03;1.40;;;23.10;99.90;;;;;;5024627;28;20452;-86